sensor_id;sensor_type;location;lat;lon;timestamp;pressure;altitude;pressure_sealevel;temperature;humidity
41230;BME280;26964;50.428;19.218;2022-11-15T00:00:29;1022.5;;;3.4;83.3
41230;BME280;26964;50.428;19.218;2022-11-15T00:10:30;1022.4;;;3.4;83.3
41230;BME280;26964;50.428;19.218;2022-11-15T00:15:29;1022.4;;;3.4;83.3
41230;BME280;26964;50.428;19.218;2022-11-15T00:20:31;1022.3;;;3.4;83.4
41230;BME280;26964;50.428;19.218;2022-11-15T00:25:30;1022.2;;;3.4;83.4
41230;BME280;26964;50.428;19.218;2022-11-15T00:30:30;1022.4;;;3.4;83.3
41230;BME280;26964;50.428;19.218;2022-11-15T00:35:31;1022.2;;;3.4;83.3
41230;BME280;26964;50.428;19.218;2022-11-15T00:40:30;1022.2;;;3.4;83.4
41230;BME280;26964;50.428;19.218;2022-11-15T00:45:30;1022.1;;;3.4;83.4
41230;BME280;26964;50.428;19.218;2022-11-15T00:50:31;1022.1;;;3.4;83.4
41230;BME280;26964;50.428;19.218;2022-11-15T00:55:30;1022.0;;;3.4;83.5
41230;BME280;26964;50.428;19.218;2022-11-15T01:00:30;1021.9;;;3.4;83.4
41230;BME280;26964;50.428;19.218;2022-11-15T01:05:30;1022.0;;;3.3;83.5
41230;BME280;26964;50.428;19.218;2022-11-15T01:10:30;1021.8;;;3.3;83.5
41230;BME280;26964;50.428;19.218;2022-11-15T01:15:30;1021.8;;;3.3;83.5
41230;BME280;26964;50.428;19.218;2022-11-15T01:20:30;1021.8;;;3.3;83.5
41230;BME280;26964;50.428;19.218;2022-11-15T01:25:30;1021.7;;;3.2;83.3
41230;BME280;26964;50.428;19.218;2022-11-15T01:30:30;1021.7;;;3.2;83.3
41230;BME280;26964;50.428;19.218;2022-11-15T01:35:30;1021.7;;;3.1;83.2
41230;BME280;26964;50.428;19.218;2022-11-15T01:40:29;1021.6;;;3.0;83.4
41230;BME280;26964;50.428;19.218;2022-11-15T01:45:30;1021.5;;;3.0;83.4
41230;BME280;26964;50.428;19.218;2022-11-15T01:50:31;1021.4;;;3.0;83.4
41230;BME280;26964;50.428;19.218;2022-11-15T01:55:29;1021.4;;;3.0;83.4
41230;BME280;26964;50.428;19.218;2022-11-15T02:00:29;1021.4;;;2.9;83.4
41230;BME280;26964;50.428;19.218;2022-11-15T02:05:30;1021.2;;;2.8;83.4
41230;BME280;26964;50.428;19.218;2022-11-15T02:10:30;1021.2;;;2.8;83.4
41230;BME280;26964;50.428;19.218;2022-11-15T02:15:35;1021.1;;;2.7;83.3
41230;BME280;26964;50.428;19.218;2022-11-15T02:35:36;1021.0;;;2.5;83.4
41230;BME280;26964;50.428;19.218;2022-11-15T02:40:34;1021.0;;;2.5;83.4
41230;BME280;26964;50.428;19.218;2022-11-15T02:45:33;1021.0;;;2.5;83.4
41230;BME280;26964;50.428;19.218;2022-11-15T02:50:33;1020.9;;;2.4;83.4
41230;BME280;26964;50.428;19.218;2022-11-15T02:55:31;1020.8;;;2.4;83.5
41230;BME280;26964;50.428;19.218;2022-11-15T03:00:34;1020.6;;;2.4;83.4
41230;BME280;26964;50.428;19.218;2022-11-15T03:05:34;1020.7;;;2.3;83.4
41230;BME280;26964;50.428;19.218;2022-11-15T03:10:36;1020.6;;;2.3;83.4
41230;BME280;26964;50.428;19.218;2022-11-15T03:15:36;1020.7;;;2.3;83.5
41230;BME280;26964;50.428;19.218;2022-11-15T03:20:30;1020.6;;;2.2;83.5
41230;BME280;26964;50.428;19.218;2022-11-15T03:25:30;1020.5;;;2.2;83.5
41230;BME280;26964;50.428;19.218;2022-11-15T03:30:30;1020.5;;;2.2;83.6
41230;BME280;26964;50.428;19.218;2022-11-15T03:35:32;1020.3;;;2.2;83.6
41230;BME280;26964;50.428;19.218;2022-11-15T03:40:33;1020.3;;;2.2;83.6
41230;BME280;26964;50.428;19.218;2022-11-15T03:45:34;1020.2;;;2.1;83.6
41230;BME280;26964;50.428;19.218;2022-11-15T03:50:29;1020.3;;;2.1;83.7
41230;BME280;26964;50.428;19.218;2022-11-15T03:55:32;1020.1;;;2.1;83.7
41230;BME280;26964;50.428;19.218;2022-11-15T04:00:30;1020.1;;;2.1;83.7
41230;BME280;26964;50.428;19.218;2022-11-15T04:05:29;1020.0;;;2.1;83.8
41230;BME280;26964;50.428;19.218;2022-11-15T04:10:30;1020.0;;;2.1;83.8
41230;BME280;26964;50.428;19.218;2022-11-15T04:15:30;1020.0;;;2.1;83.9
41230;BME280;26964;50.428;19.218;2022-11-15T04:20:30;1020.0;;;2.2;83.9
41230;BME280;26964;50.428;19.218;2022-11-15T04:25:29;1019.9;;;2.2;83.9
41230;BME280;26964;50.428;19.218;2022-11-15T04:30:30;1019.9;;;2.2;83.9
41230;BME280;26964;50.428;19.218;2022-11-15T04:35:30;1019.7;;;2.2;84.0
41230;BME280;26964;50.428;19.218;2022-11-15T04:40:30;1019.7;;;2.3;84.0
41230;BME280;26964;50.428;19.218;2022-11-15T04:45:29;1019.6;;;2.3;84.0
41230;BME280;26964;50.428;19.218;2022-11-15T04:50:30;1019.6;;;2.3;84.0
41230;BME280;26964;50.428;19.218;2022-11-15T04:55:30;1019.6;;;2.3;84.0
41230;BME280;26964;50.428;19.218;2022-11-15T05:00:29;1019.5;;;2.3;84.0
41230;BME280;26964;50.428;19.218;2022-11-15T05:05:29;1019.4;;;2.3;84.0
41230;BME280;26964;50.428;19.218;2022-11-15T05:10:29;1019.5;;;2.3;84.0
41230;BME280;26964;50.428;19.218;2022-11-15T05:15:29;1019.4;;;2.3;84.1
41230;BME280;26964;50.428;19.218;2022-11-15T05:20:29;1019.4;;;2.3;84.1
41230;BME280;26964;50.428;19.218;2022-11-15T05:25:29;1019.4;;;2.3;84.1
41230;BME280;26964;50.428;19.218;2022-11-15T05:30:29;1019.3;;;2.3;84.1
41230;BME280;26964;50.428;19.218;2022-11-15T05:35:31;1019.3;;;2.3;84.1
41230;BME280;26964;50.428;19.218;2022-11-15T05:40:29;1019.3;;;2.3;84.1
41230;BME280;26964;50.428;19.218;2022-11-15T05:45:29;1019.2;;;2.3;84.1
41230;BME280;26964;50.428;19.218;2022-11-15T05:50:29;1019.2;;;2.3;84.1
41230;BME280;26964;50.428;19.218;2022-11-15T05:55:29;1019.3;;;2.3;84.1
41230;BME280;26964;50.428;19.218;2022-11-15T06:00:29;1019.3;;;2.3;84.2
41230;BME280;26964;50.428;19.218;2022-11-15T06:05:28;1019.2;;;2.4;84.2
41230;BME280;26964;50.428;19.218;2022-11-15T06:10:29;1019.2;;;2.4;84.3
41230;BME280;26964;50.428;19.218;2022-11-15T06:15:29;1019.2;;;2.4;84.3
41230;BME280;26964;50.428;19.218;2022-11-15T06:20:30;1019.2;;;2.4;84.2
41230;BME280;26964;50.428;19.218;2022-11-15T06:25:30;1019.2;;;2.4;84.1
41230;BME280;26964;50.428;19.218;2022-11-15T06:30:28;1019.1;;;2.4;84.1
41230;BME280;26964;50.428;19.218;2022-11-15T06:35:29;1019.2;;;2.3;84.0
41230;BME280;26964;50.428;19.218;2022-11-15T06:40:29;1019.3;;;2.4;84.1
41230;BME280;26964;50.428;19.218;2022-11-15T06:45:28;1019.3;;;2.4;84.1
41230;BME280;26964;50.428;19.218;2022-11-15T06:50:29;1019.5;;;2.4;84.1
41230;BME280;26964;50.428;19.218;2022-11-15T06:55:29;1019.5;;;2.4;84.1
41230;BME280;26964;50.428;19.218;2022-11-15T07:00:29;1019.4;;;2.4;84.1
41230;BME280;26964;50.428;19.218;2022-11-15T07:05:29;1019.4;;;2.5;84.1
41230;BME280;26964;50.428;19.218;2022-11-15T07:10:28;1019.4;;;2.4;84.0
41230;BME280;26964;50.428;19.218;2022-11-15T07:15:29;1019.4;;;2.5;84.1
41230;BME280;26964;50.428;19.218;2022-11-15T07:20:29;1019.4;;;2.5;84.1
41230;BME280;26964;50.428;19.218;2022-11-15T07:25:29;1019.4;;;2.5;84.1
41230;BME280;26964;50.428;19.218;2022-11-15T07:30:29;1019.4;;;2.5;84.1
41230;BME280;26964;50.428;19.218;2022-11-15T07:35:29;1019.3;;;2.6;84.1
41230;BME280;26964;50.428;19.218;2022-11-15T07:40:30;1019.3;;;2.6;84.1
41230;BME280;26964;50.428;19.218;2022-11-15T07:45:29;1019.3;;;2.7;84.1
41230;BME280;26964;50.428;19.218;2022-11-15T07:50:29;1019.3;;;2.8;84.2
41230;BME280;26964;50.428;19.218;2022-11-15T07:55:28;1019.2;;;2.9;84.3
41230;BME280;26964;50.428;19.218;2022-11-15T08:00:28;1019.1;;;3.0;84.3
41230;BME280;26964;50.428;19.218;2022-11-15T08:05:29;1019.2;;;3.2;84.3
41230;BME280;26964;50.428;19.218;2022-11-15T08:10:29;1019.1;;;3.3;84.3
41230;BME280;26964;50.428;19.218;2022-11-15T08:15:29;1019.1;;;3.5;84.3
41230;BME280;26964;50.428;19.218;2022-11-15T08:20:29;1019.0;;;3.6;84.3
41230;BME280;26964;50.428;19.218;2022-11-15T08:25:30;1019.0;;;3.7;84.3
41230;BME280;26964;50.428;19.218;2022-11-15T08:30:30;1019.1;;;3.8;84.3
41230;BME280;26964;50.428;19.218;2022-11-15T08:35:28;1019.0;;;4.0;84.4
41230;BME280;26964;50.428;19.218;2022-11-15T08:40:29;1019.0;;;4.1;84.4
41230;BME280;26964;50.428;19.218;2022-11-15T08:45:28;1018.8;;;4.3;84.3
41230;BME280;26964;50.428;19.218;2022-11-15T08:50:28;1019.0;;;4.4;84.3
41230;BME280;26964;50.428;19.218;2022-11-15T08:55:28;1019.0;;;4.6;84.3
41230;BME280;26964;50.428;19.218;2022-11-15T09:00:28;1018.9;;;4.7;84.2
41230;BME280;26964;50.428;19.218;2022-11-15T09:05:30;1018.8;;;4.8;84.3
41230;BME280;26964;50.428;19.218;2022-11-15T09:10:29;1018.8;;;4.9;84.3
41230;BME280;26964;50.428;19.218;2022-11-15T09:15:29;1018.8;;;5.0;84.3
41230;BME280;26964;50.428;19.218;2022-11-15T09:20:28;1018.7;;;5.2;84.5
41230;BME280;26964;50.428;19.218;2022-11-15T09:25:29;1018.7;;;5.4;84.5
41230;BME280;26964;50.428;19.218;2022-11-15T09:30:29;1018.7;;;5.5;84.5
41230;BME280;26964;50.428;19.218;2022-11-15T09:35:28;1018.6;;;5.7;84.7
41230;BME280;26964;50.428;19.218;2022-11-15T09:40:30;1018.6;;;5.9;84.6
41230;BME280;26964;50.428;19.218;2022-11-15T09:45:34;1018.5;;;6.1;84.5
41230;BME280;26964;50.428;19.218;2022-11-15T09:50:34;1018.4;;;6.2;84.5
41230;BME280;26964;50.428;19.218;2022-11-15T09:55:34;1018.2;;;6.3;84.5
41230;BME280;26964;50.428;19.218;2022-11-15T10:00:33;1018.1;;;6.5;84.5
41230;BME280;26964;50.428;19.218;2022-11-15T10:05:28;1018.0;;;6.6;84.6
41230;BME280;26964;50.428;19.218;2022-11-15T10:10:33;1018.0;;;6.8;84.5
41230;BME280;26964;50.428;19.218;2022-11-15T10:15:28;1017.9;;;7.0;84.4
41230;BME280;26964;50.428;19.218;2022-11-15T10:20:30;1017.9;;;7.2;84.3
41230;BME280;26964;50.428;19.218;2022-11-15T10:25:29;1017.8;;;7.5;84.4
41230;BME280;26964;50.428;19.218;2022-11-15T10:30:32;1017.8;;;7.7;84.3
41230;BME280;26964;50.428;19.218;2022-11-15T10:35:30;1017.7;;;7.9;84.2
41230;BME280;26964;50.428;19.218;2022-11-15T10:40:28;1017.7;;;8.0;84.1
41230;BME280;26964;50.428;19.218;2022-11-15T10:45:29;1017.6;;;8.0;84.1
41230;BME280;26964;50.428;19.218;2022-11-15T10:50:31;1017.6;;;8.1;84.1
41230;BME280;26964;50.428;19.218;2022-11-15T10:55:30;1017.6;;;8.2;84.2
41230;BME280;26964;50.428;19.218;2022-11-15T11:00:33;1017.6;;;8.4;84.3
41230;BME280;26964;50.428;19.218;2022-11-15T11:05:29;1017.4;;;8.6;84.5
41230;BME280;26964;50.428;19.218;2022-11-15T11:10:28;1017.4;;;8.8;84.2
41230;BME280;26964;50.428;19.218;2022-11-15T11:15:29;1017.4;;;9.0;84.3
41230;BME280;26964;50.428;19.218;2022-11-15T11:20:33;1017.3;;;9.3;84.5
41230;BME280;26964;50.428;19.218;2022-11-15T11:25:34;1017.3;;;9.6;84.5
41230;BME280;26964;50.428;19.218;2022-11-15T11:30:34;1017.1;;;9.8;84.3
41230;BME280;26964;50.428;19.218;2022-11-15T11:35:30;1017.1;;;10.0;84.2
41230;BME280;26964;50.428;19.218;2022-11-15T11:40:30;1017.1;;;10.2;84.2
41230;BME280;26964;50.428;19.218;2022-11-15T11:50:28;1017.0;;;10.6;83.9
41230;BME280;26964;50.428;19.218;2022-11-15T11:55:33;1016.8;;;10.7;83.7
41230;BME280;26964;50.428;19.218;2022-11-15T12:00:28;1016.7;;;10.8;83.6
41230;BME280;26964;50.428;19.218;2022-11-15T12:05:32;1016.7;;;10.8;83.3
41230;BME280;26964;50.428;19.218;2022-11-15T12:10:30;1016.6;;;10.7;83.1
41230;BME280;26964;50.428;19.218;2022-11-15T12:15:32;1016.5;;;10.5;83.0
41230;BME280;26964;50.428;19.218;2022-11-15T12:20:32;1016.5;;;10.4;83.0
41230;BME280;26964;50.428;19.218;2022-11-15T12:25:31;1016.4;;;10.4;83.1
41230;BME280;26964;50.428;19.218;2022-11-15T12:35:34;1016.3;;;10.3;83.0
41230;BME280;26964;50.428;19.218;2022-11-15T12:45:30;1016.2;;;10.3;82.8
41230;BME280;26964;50.428;19.218;2022-11-15T12:55:31;1016.1;;;10.1;82.7
41230;BME280;26964;50.428;19.218;2022-11-15T13:10:31;1016.0;;;9.9;82.6
41230;BME280;26964;50.428;19.218;2022-11-15T13:20:30;1015.9;;;9.8;82.5
41230;BME280;26964;50.428;19.218;2022-11-15T13:30:30;1015.7;;;9.7;82.5
41230;BME280;26964;50.428;19.218;2022-11-15T13:35:29;1015.7;;;9.7;82.4
41230;BME280;26964;50.428;19.218;2022-11-15T13:40:33;1015.7;;;9.6;82.4
41230;BME280;26964;50.428;19.218;2022-11-15T13:45:29;1015.7;;;9.6;82.4
41230;BME280;26964;50.428;19.218;2022-11-15T13:50:32;1015.5;;;9.5;82.4
41230;BME280;26964;50.428;19.218;2022-11-15T13:55:29;1015.5;;;9.5;82.4
41230;BME280;26964;50.428;19.218;2022-11-15T14:00:33;1015.6;;;9.4;82.4
41230;BME280;26964;50.428;19.218;2022-11-15T14:05:29;1015.4;;;9.4;82.4
41230;BME280;26964;50.428;19.218;2022-11-15T14:10:30;1015.5;;;9.4;82.4
41230;BME280;26964;50.428;19.218;2022-11-15T14:15:31;1015.4;;;9.3;82.4
41230;BME280;26964;50.428;19.218;2022-11-15T14:20:31;1015.4;;;9.3;82.4
41230;BME280;26964;50.428;19.218;2022-11-15T14:25:30;1015.3;;;9.2;82.3
41230;BME280;26964;50.428;19.218;2022-11-15T14:30:28;1015.3;;;9.2;82.3
41230;BME280;26964;50.428;19.218;2022-11-15T14:35:28;1015.2;;;9.1;82.3
41230;BME280;26964;50.428;19.218;2022-11-15T14:40:29;1015.2;;;9.1;82.3
41230;BME280;26964;50.428;19.218;2022-11-15T14:45:28;1015.1;;;9.0;82.2
41230;BME280;26964;50.428;19.218;2022-11-15T14:50:29;1015.1;;;9.0;82.2
41230;BME280;26964;50.428;19.218;2022-11-15T14:55:32;1015.2;;;8.9;82.3
41230;BME280;26964;50.428;19.218;2022-11-15T15:00:28;1015.0;;;9.0;82.4
41230;BME280;26964;50.428;19.218;2022-11-15T15:05:30;1014.9;;;9.0;82.3
41230;BME280;26964;50.428;19.218;2022-11-15T15:10:33;1014.9;;;9.0;82.2
41230;BME280;26964;50.428;19.218;2022-11-15T15:15:33;1014.9;;;8.9;82.2
41230;BME280;26964;50.428;19.218;2022-11-15T15:20:29;1014.9;;;8.9;82.2
41230;BME280;26964;50.428;19.218;2022-11-15T15:25:29;1014.8;;;8.8;82.0
41230;BME280;26964;50.428;19.218;2022-11-15T15:30:29;1014.7;;;8.7;82.1
41230;BME280;26964;50.428;19.218;2022-11-15T15:35:30;1014.7;;;8.6;82.2
41230;BME280;26964;50.428;19.218;2022-11-15T15:40:29;1014.7;;;8.6;82.2
41230;BME280;26964;50.428;19.218;2022-11-15T15:45:28;1014.7;;;8.5;82.1
41230;BME280;26964;50.428;19.218;2022-11-15T15:50:29;1014.7;;;8.4;82.1
41230;BME280;26964;50.428;19.218;2022-11-15T15:55:28;1014.6;;;8.4;82.2
41230;BME280;26964;50.428;19.218;2022-11-15T16:00:28;1014.6;;;8.3;82.2
41230;BME280;26964;50.428;19.218;2022-11-15T16:05:27;1014.5;;;8.3;82.2
41230;BME280;26964;50.428;19.218;2022-11-15T16:10:32;1014.6;;;8.2;82.1
41230;BME280;26964;50.428;19.218;2022-11-15T16:15:29;1014.6;;;8.1;82.2
41230;BME280;26964;50.428;19.218;2022-11-15T16:20:32;1014.6;;;8.1;82.3
41230;BME280;26964;50.428;19.218;2022-11-15T16:25:27;1014.6;;;8.1;82.3
41230;BME280;26964;50.428;19.218;2022-11-15T16:30:27;1014.6;;;8.1;82.2
41230;BME280;26964;50.428;19.218;2022-11-15T16:35:28;1014.7;;;8.0;82.3
41230;BME280;26964;50.428;19.218;2022-11-15T16:40:30;1014.6;;;8.0;82.3
41230;BME280;26964;50.428;19.218;2022-11-15T16:45:28;1014.6;;;8.0;82.3
41230;BME280;26964;50.428;19.218;2022-11-15T16:50:29;1014.6;;;8.0;82.3
41230;BME280;26964;50.428;19.218;2022-11-15T16:55:28;1014.5;;;8.0;82.2
41230;BME280;26964;50.428;19.218;2022-11-15T17:00:28;1014.4;;;7.9;82.3
41230;BME280;26964;50.428;19.218;2022-11-15T17:05:28;1014.3;;;7.9;82.4
41230;BME280;26964;50.428;19.218;2022-11-15T17:10:28;1014.4;;;7.9;82.4
41230;BME280;26964;50.428;19.218;2022-11-15T17:15:28;1014.3;;;7.9;82.4
41230;BME280;26964;50.428;19.218;2022-11-15T17:20:28;1014.2;;;7.9;82.4
41230;BME280;26964;50.428;19.218;2022-11-15T17:25:28;1014.2;;;7.9;82.4
41230;BME280;26964;50.428;19.218;2022-11-15T17:30:28;1014.1;;;7.9;82.4
41230;BME280;26964;50.428;19.218;2022-11-15T17:35:28;1014.2;;;7.9;82.4
41230;BME280;26964;50.428;19.218;2022-11-15T17:40:29;1014.1;;;7.9;82.4
41230;BME280;26964;50.428;19.218;2022-11-15T17:45:28;1014.1;;;7.8;82.4
41230;BME280;26964;50.428;19.218;2022-11-15T17:50:28;1014.0;;;7.8;82.4
41230;BME280;26964;50.428;19.218;2022-11-15T17:55:28;1013.9;;;7.8;82.4
41230;BME280;26964;50.428;19.218;2022-11-15T18:00:28;1013.8;;;7.8;82.4
41230;BME280;26964;50.428;19.218;2022-11-15T18:05:28;1013.9;;;7.7;82.4
41230;BME280;26964;50.428;19.218;2022-11-15T18:10:28;1013.7;;;7.7;82.4
41230;BME280;26964;50.428;19.218;2022-11-15T18:15:28;1013.6;;;7.7;82.4
41230;BME280;26964;50.428;19.218;2022-11-15T18:20:28;1013.6;;;7.7;82.4
41230;BME280;26964;50.428;19.218;2022-11-15T18:25:28;1013.6;;;7.6;82.3
41230;BME280;26964;50.428;19.218;2022-11-15T18:30:28;1013.5;;;7.6;82.4
41230;BME280;26964;50.428;19.218;2022-11-15T18:35:28;1013.4;;;7.5;82.5
41230;BME280;26964;50.428;19.218;2022-11-15T18:40:28;1013.4;;;7.5;82.5
41230;BME280;26964;50.428;19.218;2022-11-15T18:45:28;1013.5;;;7.5;82.5
41230;BME280;26964;50.428;19.218;2022-11-15T18:50:28;1013.5;;;7.5;82.5
41230;BME280;26964;50.428;19.218;2022-11-15T18:55:28;1013.5;;;7.5;82.5
41230;BME280;26964;50.428;19.218;2022-11-15T19:00:28;1013.4;;;7.5;82.5
41230;BME280;26964;50.428;19.218;2022-11-15T19:05:28;1013.5;;;7.5;82.5
41230;BME280;26964;50.428;19.218;2022-11-15T19:10:28;1013.5;;;7.4;82.4
41230;BME280;26964;50.428;19.218;2022-11-15T19:15:29;1013.5;;;7.4;82.5
41230;BME280;26964;50.428;19.218;2022-11-15T19:20:29;1013.5;;;7.4;82.5
41230;BME280;26964;50.428;19.218;2022-11-15T19:25:28;1013.5;;;7.4;82.5
41230;BME280;26964;50.428;19.218;2022-11-15T19:30:28;1013.4;;;7.4;82.5
41230;BME280;26964;50.428;19.218;2022-11-15T19:35:28;1013.3;;;7.4;82.5
41230;BME280;26964;50.428;19.218;2022-11-15T19:40:28;1013.3;;;7.4;82.5
41230;BME280;26964;50.428;19.218;2022-11-15T19:45:28;1013.4;;;7.4;82.5
41230;BME280;26964;50.428;19.218;2022-11-15T19:50:28;1013.3;;;7.4;82.5
41230;BME280;26964;50.428;19.218;2022-11-15T19:55:28;1013.3;;;7.4;82.6
41230;BME280;26964;50.428;19.218;2022-11-15T20:00:28;1013.2;;;7.4;82.6
41230;BME280;26964;50.428;19.218;2022-11-15T20:05:28;1013.1;;;7.4;82.6
41230;BME280;26964;50.428;19.218;2022-11-15T20:10:28;1013.0;;;7.4;82.6
41230;BME280;26964;50.428;19.218;2022-11-15T20:15:29;1013.0;;;7.3;82.6
41230;BME280;26964;50.428;19.218;2022-11-15T20:20:29;1013.0;;;7.3;82.6
41230;BME280;26964;50.428;19.218;2022-11-15T20:25:29;1013.0;;;7.3;82.5
41230;BME280;26964;50.428;19.218;2022-11-15T20:30:28;1012.9;;;7.3;82.5
41230;BME280;26964;50.428;19.218;2022-11-15T20:35:29;1013.1;;;7.3;82.6
41230;BME280;26964;50.428;19.218;2022-11-15T20:40:28;1013.1;;;7.2;82.6
41230;BME280;26964;50.428;19.218;2022-11-15T20:45:28;1012.9;;;7.2;82.6
41230;BME280;26964;50.428;19.218;2022-11-15T20:50:28;1012.9;;;7.2;82.6
41230;BME280;26964;50.428;19.218;2022-11-15T20:55:28;1012.8;;;7.2;82.6
41230;BME280;26964;50.428;19.218;2022-11-15T21:00:28;1012.7;;;7.2;82.6
41230;BME280;26964;50.428;19.218;2022-11-15T21:05:28;1012.6;;;7.2;82.6
41230;BME280;26964;50.428;19.218;2022-11-15T21:10:28;1012.7;;;7.2;82.7
41230;BME280;26964;50.428;19.218;2022-11-15T21:15:28;1012.6;;;7.1;82.7
41230;BME280;26964;50.428;19.218;2022-11-15T21:20:28;1012.5;;;7.2;82.7
41230;BME280;26964;50.428;19.218;2022-11-15T21:25:28;1012.5;;;7.2;82.7
41230;BME280;26964;50.428;19.218;2022-11-15T21:30:28;1012.4;;;7.2;82.8
41230;BME280;26964;50.428;19.218;2022-11-15T21:35:28;1012.4;;;7.2;82.7
41230;BME280;26964;50.428;19.218;2022-11-15T21:40:27;1012.4;;;7.2;82.8
41230;BME280;26964;50.428;19.218;2022-11-15T21:45:28;1012.5;;;7.2;82.8
41230;BME280;26964;50.428;19.218;2022-11-15T21:50:28;1012.3;;;7.2;82.7
41230;BME280;26964;50.428;19.218;2022-11-15T21:55:28;1012.2;;;7.2;82.8
41230;BME280;26964;50.428;19.218;2022-11-15T22:00:27;1012.2;;;7.2;82.7
41230;BME280;26964;50.428;19.218;2022-11-15T22:05:27;1012.1;;;7.2;82.8
41230;BME280;26964;50.428;19.218;2022-11-15T22:10:28;1012.0;;;7.2;82.7
41230;BME280;26964;50.428;19.218;2022-11-15T22:15:28;1012.0;;;7.2;82.8
41230;BME280;26964;50.428;19.218;2022-11-15T22:20:28;1012.0;;;7.2;82.8
41230;BME280;26964;50.428;19.218;2022-11-15T22:25:28;1011.9;;;7.2;82.8
41230;BME280;26964;50.428;19.218;2022-11-15T22:30:28;1011.7;;;7.2;82.8
41230;BME280;26964;50.428;19.218;2022-11-15T22:35:28;1011.7;;;7.2;82.8
41230;BME280;26964;50.428;19.218;2022-11-15T22:40:28;1011.8;;;7.1;82.8
41230;BME280;26964;50.428;19.218;2022-11-15T22:45:28;1011.7;;;7.2;82.8
41230;BME280;26964;50.428;19.218;2022-11-15T22:50:28;1011.7;;;7.2;82.8
41230;BME280;26964;50.428;19.218;2022-11-15T22:55:28;1011.6;;;7.2;82.8
41230;BME280;26964;50.428;19.218;2022-11-15T23:00:29;1011.5;;;7.2;82.8
41230;BME280;26964;50.428;19.218;2022-11-15T23:05:27;1011.4;;;7.2;82.9
41230;BME280;26964;50.428;19.218;2022-11-15T23:10:27;1011.2;;;7.2;82.9
41230;BME280;26964;50.428;19.218;2022-11-15T23:15:28;1011.2;;;7.2;82.9
41230;BME280;26964;50.428;19.218;2022-11-15T23:20:28;1011.1;;;7.3;82.9
41230;BME280;26964;50.428;19.218;2022-11-15T23:25:28;1011.2;;;7.3;82.9
41230;BME280;26964;50.428;19.218;2022-11-15T23:30:28;1011.2;;;7.3;82.9
41230;BME280;26964;50.428;19.218;2022-11-15T23:35:28;1011.1;;;7.3;82.9
41230;BME280;26964;50.428;19.218;2022-11-15T23:40:28;1011.1;;;7.3;82.9
41230;BME280;26964;50.428;19.218;2022-11-15T23:45:28;1011.0;;;7.3;83.0
41230;BME280;26964;50.428;19.218;2022-11-15T23:50:27;1011.0;;;7.3;82.9
41230;BME280;26964;50.428;19.218;2022-11-15T23:55:28;1010.8;;;7.4;83.0
